Time;durP1;ratioP1;P1;durP2;ratioP2;P2;SDS_P1;SDS_P2;PMS_P1;PMS_P2;Temp;Humidity;BMP_temperature;BMP_pressure;BME280_temperature;BME280_humidity;BME280_pressure;Samples;Min_cycle;Max_cycle;Signal;HPM_P1;HPM_P2
2023/06/30 00:00:52;;;;;;;10.17;6.00;;;19.60;99.90;;;;;;5000654;28;20548;-53
2023/06/30 00:03:19;;;;;;;9.30;5.83;;;19.60;99.90;;;;;;4999674;28;20464;-53
2023/06/30 00:05:46;;;;;;;6.60;5.40;;;19.60;99.90;;;;;;4986092;28;20496;-53
2023/06/30 00:08:13;;;;;;;5.83;5.27;;;19.70;99.90;;;;;;4987519;28;20486;-53
2023/06/30 00:10:40;;;;;;;6.20;5.10;;;19.70;99.90;;;;;;4993886;28;20489;-53
2023/06/30 00:13:08;;;;;;;9.33;6.00;;;19.70;99.90;;;;;;5004786;28;20549;-53
2023/06/30 00:15:35;;;;;;;8.10;5.63;;;19.70;99.90;;;;;;4990130;28;20526;-54
2023/06/30 00:18:01;;;;;;;6.43;5.77;;;19.70;99.90;;;;;;4991029;28;20559;-54
2023/06/30 00:20:28;;;;;;;13.20;6.00;;;19.70;99.90;;;;;;4989044;28;20471;-54
2023/06/30 00:22:54;;;;;;;9.30;5.70;;;19.60;99.90;;;;;;4984824;28;21035;-54
2023/06/30 00:25:21;;;;;;;10.63;7.73;;;19.60;99.90;;;;;;4985679;28;20543;-54
2023/06/30 00:27:47;;;;;;;7.20;5.67;;;19.60;99.90;;;;;;4989566;28;20555;-53
2023/06/30 00:30:15;;;;;;;9.47;7.40;;;19.60;99.90;;;;;;4986002;28;20884;-53
2023/06/30 00:32:42;;;;;;;11.03;8.63;;;19.60;99.90;;;;;;4991433;28;20547;-53
2023/06/30 00:35:09;;;;;;;14.47;10.57;;;19.60;99.90;;;;;;4981412;28;20559;-53
2023/06/30 00:37:35;;;;;;;13.60;11.17;;;19.60;99.90;;;;;;4979665;28;21159;-54
2023/06/30 00:40:02;;;;;;;18.50;11.10;;;19.60;99.90;;;;;;4984683;28;20543;-54
2023/06/30 00:42:28;;;;;;;14.87;12.73;;;19.60;99.90;;;;;;4987982;28;20579;-53
2023/06/30 00:44:55;;;;;;;15.40;12.53;;;19.60;99.90;;;;;;4982932;28;20478;-54
2023/06/30 00:47:23;;;;;;;22.00;12.53;;;19.60;99.90;;;;;;4999103;28;20568;-53
2023/06/30 00:49:49;;;;;;;18.03;14.70;;;19.60;99.90;;;;;;4987672;28;20575;-53
2023/06/30 00:52:16;;;;;;;19.70;14.63;;;19.40;99.90;;;;;;4986232;28;20559;-53
2023/06/30 00:54:42;;;;;;;24.13;17.03;;;19.40;99.90;;;;;;4987661;28;20503;-54
2023/06/30 00:57:09;;;;;;;21.73;16.00;;;19.40;99.90;;;;;;4984237;28;21031;-54
2023/06/30 00:59:35;;;;;;;20.70;16.80;;;19.30;99.90;;;;;;4981701;28;20547;-53
2023/06/30 01:02:08;;;;;;;22.93;18.10;;;19.20;99.90;;;;;;4992369;28;20582;-53
2023/06/30 01:04:43;;;;;;;27.13;18.20;;;19.10;90.90;;;;;;4982228;28;20465;-54
2023/06/30 01:07:13;;;;;;;28.23;19.27;;;19.10;82.90;;;;;;4979152;28;20547;-54
2023/06/30 01:09:47;;;;;;;29.60;19.17;;;19.00;77.70;;;;;;4989686;28;20581;-55
2023/06/30 01:12:14;;;;;;;26.50;18.37;;;19.00;71.00;;;;;;4980210;28;20513;-53
2023/06/30 01:14:41;;;;;;;27.53;18.00;;;18.90;64.50;;;;;;4982246;28;20573;-53
2023/06/30 01:17:08;;;;;;;27.17;19.10;;;18.80;57.10;;;;;;4977410;28;21033;-53
2023/06/30 01:19:39;;;;;;;28.30;19.47;;;18.70;51.30;;;;;;4978700;28;20547;-54
2023/06/30 01:22:14;;;;;;;28.10;19.43;;;18.70;46.80;;;;;;4984150;28;20554;-54
2023/06/30 01:24:43;;;;;;;26.30;19.40;;;18.60;43.40;;;;;;4988607;28;20580;-54
2023/06/30 01:27:12;;;;;;;23.53;18.93;;;18.60;38.00;;;;;;4978159;28;20482;-53
2023/06/30 01:29:42;;;;;;;23.63;17.63;;;18.50;32.70;;;;;;4983851;28;20485;-54
2023/06/30 01:32:09;;;;;;;27.30;16.70;;;18.40;31.00;;;;;;4983147;28;20580;-53
2023/06/30 01:34:37;;;;;;;26.63;18.37;;;18.40;27.70;;;;;;4990774;28;20523;-53
2023/06/30 01:37:04;;;;;;;21.43;17.37;;;18.40;24.80;;;;;;4989922;28;20460;-53
2023/06/30 01:39:30;;;;;;;19.20;16.83;;;18.40;22.50;;;;;;4990805;28;20460;-53
2023/06/30 01:41:57;;;;;;;24.20;17.57;;;18.40;71.90;;;;;;4992177;28;20933;-54
2023/06/30 01:44:24;;;;;;;24.70;17.57;;;18.30;85.00;;;;;;4986273;28;21023;-54
2023/06/30 01:46:50;;;;;;;27.40;18.00;;;18.30;99.90;;;;;;4985943;28;21062;-54
2023/06/30 01:49:18;;;;;;;20.53;17.20;;;18.20;98.00;;;;;;4990563;28;20582;-54
2023/06/30 01:51:46;;;;;;;22.93;17.77;;;18.20;99.90;;;;;;4993579;28;20511;-53
2023/06/30 01:54:12;;;;;;;24.63;18.03;;;18.20;99.90;;;;;;4987781;28;20570;-53
2023/06/30 01:56:46;;;;;;;26.33;17.70;;;18.20;99.90;;;;;;4989197;28;20551;-54
2023/06/30 01:59:13;;;;;;;24.87;19.73;;;18.20;99.90;;;;;;4983208;28;20565;-55
2023/06/30 02:01:39;;;;;;;23.20;17.80;;;18.10;99.90;;;;;;4991607;28;21090;-55
2023/06/30 02:04:06;;;;;;;23.33;19.10;;;18.10;99.90;;;;;;4996025;28;20539;-53
2023/06/30 02:06:33;;;;;;;20.50;18.23;;;18.10;99.90;;;;;;4991307;28;20974;-53
2023/06/30 02:09:00;;;;;;;21.50;17.87;;;18.20;99.90;;;;;;4990788;28;20555;-53
2023/06/30 02:11:27;;;;;;;29.13;18.87;;;18.20;99.90;;;;;;4987212;28;20563;-54
2023/06/30 02:13:54;;;;;;;23.30;17.80;;;18.10;99.90;;;;;;4990633;28;21001;-53
2023/06/30 02:16:20;;;;;;;27.20;19.93;;;18.20;99.90;;;;;;4988670;28;20552;-53
2023/06/30 02:18:47;;;;;;;24.73;19.43;;;18.10;99.90;;;;;;4986562;28;20552;-54
2023/06/30 02:21:13;;;;;;;28.50;20.13;;;18.10;99.90;;;;;;4984105;28;20504;-54
2023/06/30 02:23:40;;;;;;;24.20;19.23;;;18.10;99.90;;;;;;4983734;28;20499;-53
2023/06/30 02:26:07;;;;;;;23.60;18.43;;;18.10;99.90;;;;;;4985655;28;21194;-54
2023/06/30 02:28:34;;;;;;;26.60;20.03;;;18.10;99.90;;;;;;4985286;28;20488;-54
2023/06/30 02:31:00;;;;;;;42.23;21.07;;;18.10;99.90;;;;;;4986985;28;21077;-52
2023/06/30 02:33:27;;;;;;;24.50;18.53;;;18.10;99.90;;;;;;4984077;28;20491;-54
2023/06/30 02:35:53;;;;;;;29.03;18.80;;;18.10;99.90;;;;;;4981712;28;20536;-54
2023/06/30 02:38:20;;;;;;;24.10;19.20;;;18.10;99.90;;;;;;4986741;28;20540;-53
2023/06/30 02:40:47;;;;;;;25.90;19.57;;;18.10;99.90;;;;;;4994321;28;21037;-53
2023/06/30 02:43:14;;;;;;;21.60;18.40;;;18.10;99.90;;;;;;4994840;28;20469;-54
2023/06/30 02:45:41;;;;;;;34.67;19.73;;;18.10;99.90;;;;;;4994661;28;20464;-54
2023/06/30 02:48:07;;;;;;;26.37;20.57;;;18.10;99.90;;;;;;4990258;28;20511;-54
2023/06/30 02:50:34;;;;;;;26.53;19.33;;;18.00;99.90;;;;;;4987440;28;20576;-53
2023/06/30 02:53:01;;;;;;;27.50;18.80;;;18.00;99.90;;;;;;4984796;28;20544;-53
2023/06/30 02:55:28;;;;;;;27.87;19.83;;;18.00;99.90;;;;;;4990324;28;21022;-54
2023/06/30 02:57:55;;;;;;;25.63;19.83;;;18.00;99.90;;;;;;4991040;28;21013;-53
2023/06/30 03:00:22;;;;;;;24.33;20.57;;;18.00;99.90;;;;;;4995389;28;20546;-54
2023/06/30 03:02:49;;;;;;;25.60;20.57;;;18.00;99.90;;;;;;4977199;28;20507;-53
2023/06/30 03:05:15;;;;;;;31.23;20.40;;;18.00;99.90;;;;;;4996184;28;20571;-53
2023/06/30 03:07:42;;;;;;;27.63;20.83;;;17.90;99.90;;;;;;4985839;28;20931;-53
2023/06/30 03:10:09;;;;;;;25.37;20.33;;;17.90;99.90;;;;;;4998744;28;21033;-53
2023/06/30 03:12:36;;;;;;;25.70;20.70;;;17.90;99.90;;;;;;4996121;28;22082;-53
2023/06/30 03:15:02;;;;;;;26.93;20.70;;;17.90;99.90;;;;;;5011150;28;20502;-53
2023/06/30 03:17:30;;;;;;;25.57;20.37;;;17.90;99.90;;;;;;4983269;28;20497;-53
2023/06/30 03:19:57;;;;;;;24.63;20.00;;;17.90;99.90;;;;;;4987424;28;20456;-53
2023/06/30 03:22:23;;;;;;;29.87;21.73;;;17.90;99.90;;;;;;4993765;28;21063;-54
2023/06/30 03:24:50;;;;;;;30.87;22.20;;;17.90;99.90;;;;;;4988582;28;22210;-55
2023/06/30 03:27:16;;;;;;;31.70;20.90;;;17.90;99.90;;;;;;4997735;28;20500;-54
2023/06/30 03:29:43;;;;;;;30.90;21.07;;;17.90;99.90;;;;;;4991999;28;20465;-54
2023/06/30 03:32:09;;;;;;;24.03;19.03;;;17.90;99.90;;;;;;4996631;28;20483;-54
2023/06/30 03:34:37;;;;;;;25.57;20.70;;;17.90;99.90;;;;;;4988687;28;22164;-54
2023/06/30 03:37:04;;;;;;;27.93;22.07;;;17.90;99.90;;;;;;4996048;28;20543;-54
2023/06/30 03:39:31;;;;;;;27.90;20.83;;;17.90;99.90;;;;;;4976281;28;21024;-54
2023/06/30 03:41:57;;;;;;;25.87;21.20;;;17.90;99.90;;;;;;5000752;28;20511;-54
2023/06/30 03:44:24;;;;;;;27.17;21.37;;;17.80;99.90;;;;;;4991816;28;20507;-53
2023/06/30 03:46:50;;;;;;;23.97;19.33;;;17.80;99.90;;;;;;4991707;28;20489;-53
2023/06/30 03:49:17;;;;;;;28.23;19.67;;;17.80;99.90;;;;;;4986406;28;20496;-53
2023/06/30 03:51:45;;;;;;;28.80;21.90;;;17.80;99.90;;;;;;4985441;28;20484;-53
2023/06/30 03:54:12;;;;;;;27.30;22.43;;;17.80;99.90;;;;;;4980524;28;20464;-53
2023/06/30 03:56:38;;;;;;;27.37;21.60;;;17.80;99.90;;;;;;4984384;28;20579;-53
2023/06/30 03:59:05;;;;;;;28.00;22.50;;;17.80;99.90;;;;;;4984224;28;20540;-53
2023/06/30 04:01:33;;;;;;;27.57;21.13;;;17.80;99.90;;;;;;4984218;28;20551;-55
2023/06/30 04:04:00;;;;;;;28.63;22.50;;;17.80;99.90;;;;;;4990397;28;20498;-53
2023/06/30 04:06:26;;;;;;;25.70;21.17;;;17.80;99.90;;;;;;4995128;28;20552;-53
2023/06/30 04:08:54;;;;;;;26.83;21.87;;;17.80;99.90;;;;;;4989604;28;20611;-54
2023/06/30 04:11:21;;;;;;;26.10;21.90;;;17.80;99.90;;;;;;4984961;28;20596;-53
2023/06/30 04:13:47;;;;;;;29.30;22.47;;;17.80;99.90;;;;;;4976529;28;20494;-53
2023/06/30 04:16:14;;;;;;;30.00;23.77;;;17.80;99.90;;;;;;4975540;28;20553;-53
2023/06/30 04:18:40;;;;;;;31.07;21.07;;;17.90;99.90;;;;;;4977254;28;20517;-52
2023/06/30 04:21:07;;;;;;;29.83;21.80;;;17.90;99.90;;;;;;4978389;28;20513;-53
2023/06/30 04:23:34;;;;;;;24.73;21.50;;;17.90;99.90;;;;;;4982047;28;20489;-52
2023/06/30 04:26:01;;;;;;;26.03;21.90;;;18.00;99.90;;;;;;4989127;28;20550;-54
2023/06/30 04:28:28;;;;;;;25.10;20.83;;;18.00;99.90;;;;;;4991903;28;20599;-54
2023/06/30 04:30:54;;;;;;;25.90;21.70;;;18.00;99.90;;;;;;4992017;28;20517;-52
2023/06/30 04:33:21;;;;;;;31.67;22.20;;;18.10;99.90;;;;;;4988851;28;20551;-53
2023/06/30 04:35:48;;;;;;;32.27;23.30;;;18.10;99.90;;;;;;4990532;28;20553;-55
2023/06/30 04:38:14;;;;;;;28.43;23.67;;;18.20;99.90;;;;;;4988117;28;20480;-53
2023/06/30 04:40:41;;;;;;;26.57;21.13;;;18.20;99.90;;;;;;4989225;28;20526;-54
2023/06/30 04:43:12;;;;;;;27.30;22.20;;;18.30;99.90;;;;;;4975591;28;21116;-53
2023/06/30 04:45:38;;;;;;;27.97;21.47;;;18.30;99.90;;;;;;4995151;28;21074;-52
2023/06/30 04:48:06;;;;;;;31.10;23.30;;;18.30;99.90;;;;;;4996861;28;20907;-54
2023/06/30 04:50:33;;;;;;;33.13;21.70;;;18.30;99.90;;;;;;5008300;28;20488;-52
2023/06/30 04:52:59;;;;;;;32.63;23.53;;;18.30;99.90;;;;;;4990739;28;20546;-54
2023/06/30 04:55:26;;;;;;;28.20;22.27;;;18.30;99.90;;;;;;4987483;28;20584;-54
2023/06/30 04:57:53;;;;;;;28.57;21.97;;;18.30;99.90;;;;;;4997248;28;20986;-54
2023/06/30 05:00:22;;;;;;;26.53;21.60;;;18.30;99.90;;;;;;4987016;28;20865;-53
2023/06/30 05:02:49;;;;;;;27.67;21.70;;;18.40;99.90;;;;;;4978696;28;20916;-53
2023/06/30 05:05:15;;;;;;;29.03;23.00;;;18.40;99.90;;;;;;4973621;28;21054;-53
2023/06/30 05:07:42;;;;;;;31.03;22.20;;;18.40;99.90;;;;;;4982604;28;21013;-52
2023/06/30 05:10:09;;;;;;;29.10;22.57;;;18.40;99.90;;;;;;4985464;28;20557;-54
2023/06/30 05:12:36;;;;;;;33.73;22.03;;;18.40;99.90;;;;;;4979251;28;20524;-53
2023/06/30 05:15:03;;;;;;;32.10;19.80;;;18.40;99.90;;;;;;4981325;28;21056;-53
2023/06/30 05:17:31;;;;;;;29.13;20.63;;;18.40;99.90;;;;;;4981207;28;20461;-53
2023/06/30 05:19:59;;;;;;;24.20;20.47;;;18.50;99.90;;;;;;4977302;28;20560;-53
2023/06/30 05:22:25;;;;;;;27.37;20.83;;;18.60;99.90;;;;;;4977365;28;20562;-53
2023/06/30 05:24:52;;;;;;;27.43;20.47;;;18.60;99.90;;;;;;5000038;28;20512;-54
2023/06/30 05:27:19;;;;;;;23.90;20.10;;;18.70;99.90;;;;;;4995430;28;21008;-52
2023/06/30 05:29:45;;;;;;;25.47;18.67;;;18.70;99.90;;;;;;4982240;28;20568;-52
2023/06/30 05:32:12;;;;;;;30.83;21.27;;;18.80;99.90;;;;;;4981157;28;20515;-53
2023/06/30 05:34:42;;;;;;;24.80;20.30;;;18.80;99.90;;;;;;4993246;28;20551;-53
2023/06/30 05:37:09;;;;;;;27.60;19.73;;;18.80;99.90;;;;;;4991051;28;20492;-53
2023/06/30 05:39:35;;;;;;;25.97;20.73;;;18.90;99.90;;;;;;4997747;28;20455;-57
2023/06/30 05:42:02;;;;;;;25.60;18.73;;;18.80;99.90;;;;;;5010830;28;21210;-57
2023/06/30 05:44:28;;;;;;;22.27;17.97;;;18.80;99.90;;;;;;4994117;28;21048;-57
2023/06/30 05:46:55;;;;;;;22.20;18.30;;;18.90;99.90;;;;;;4975148;28;20464;-59
2023/06/30 05:49:22;;;;;;;24.83;18.00;;;18.90;99.90;;;;;;4978619;28;20555;-59
2023/06/30 05:51:50;;;;;;;24.10;18.10;;;19.00;99.90;;;;;;4992461;28;20575;-58
2023/06/30 05:54:16;;;;;;;26.70;18.33;;;19.10;99.90;;;;;;4989636;28;20524;-58
2023/06/30 05:56:43;;;;;;;25.67;18.30;;;19.10;99.90;;;;;;4992531;28;20497;-57
2023/06/30 05:59:10;;;;;;;29.93;18.80;;;19.10;99.90;;;;;;4994798;28;20553;-58
2023/06/30 06:01:38;;;;;;;25.23;18.47;;;19.10;99.90;;;;;;4984141;28;20491;-58
2023/06/30 06:04:05;;;;;;;23.30;18.70;;;19.20;99.90;;;;;;4995376;28;20506;-57
2023/06/30 06:06:31;;;;;;;24.03;17.83;;;19.30;99.90;;;;;;4990816;28;20499;-60
2023/06/30 06:08:59;;;;;;;27.20;17.80;;;19.30;99.90;;;;;;4991809;28;20546;-57
2023/06/30 06:11:25;;;;;;;21.27;16.80;;;19.30;99.90;;;;;;4985032;28;20579;-58
2023/06/30 06:13:52;;;;;;;21.27;17.67;;;19.30;99.90;;;;;;4993356;28;20496;-57
2023/06/30 06:16:19;;;;;;;23.20;16.43;;;19.30;99.90;;;;;;4973869;28;20481;-57
2023/06/30 06:18:45;;;;;;;21.40;18.50;;;19.40;99.90;;;;;;4973847;28;20493;-59
2023/06/30 06:21:12;;;;;;;21.60;17.80;;;19.40;99.90;;;;;;4989814;28;20559;-58
2023/06/30 06:23:39;;;;;;;22.47;17.97;;;19.50;99.90;;;;;;4985941;28;20557;-58
2023/06/30 06:26:07;;;;;;;27.53;20.27;;;19.50;99.90;;;;;;4983618;28;20467;-57
2023/06/30 06:28:34;;;;;;;21.40;17.63;;;19.60;99.90;;;;;;4990721;28;20534;-58
2023/06/30 06:31:00;;;;;;;23.40;16.83;;;19.60;99.90;;;;;;4986581;28;20497;-58
2023/06/30 06:33:27;;;;;;;25.40;18.30;;;19.60;99.90;;;;;;4991522;28;20556;-58
2023/06/30 06:35:53;;;;;;;26.27;17.97;;;19.60;99.90;;;;;;4986605;28;20495;-58
2023/06/30 06:38:20;;;;;;;25.63;18.77;;;19.50;99.90;;;;;;4990692;28;20502;-58
2023/06/30 06:40:48;;;;;;;21.53;16.73;;;19.60;99.90;;;;;;4988573;28;20616;-57
2023/06/30 06:43:16;;;;;;;20.30;16.70;;;19.50;99.90;;;;;;4981107;28;20920;-58
2023/06/30 06:45:43;;;;;;;44.17;17.00;;;19.50;99.90;;;;;;4979613;28;20607;-58
2023/06/30 06:48:18;;;;;;;17.73;15.50;;;19.50;75.10;;;;;;4977944;28;20554;-58
2023/06/30 06:50:45;;;;;;;22.43;17.20;;;19.40;26.90;;;;;;4985168;28;20484;-57
2023/06/30 06:53:17;;;;;;;21.13;16.00;;;19.40;29.60;;;;;;4988976;28;20559;-57
2023/06/30 06:55:44;;;;;;;26.10;16.90;;;19.40;32.90;;;;;;4999302;28;20466;-58
2023/06/30 06:58:11;;;;;;;30.83;15.90;;;19.40;36.80;;;;;;4987572;28;20488;-58
2023/06/30 07:00:39;;;;;;;21.17;15.90;;;19.40;37.00;;;;;;4987984;28;20933;-58
2023/06/30 07:03:06;;;;;;;20.93;15.40;;;19.40;34.50;;;;;;4990576;28;20463;-58
2023/06/30 07:05:32;;;;;;;19.27;16.70;;;19.40;30.30;;;;;;4983689;28;20560;-58
2023/06/30 07:07:59;;;;;;;28.17;17.03;;;19.50;25.60;;;;;;4983387;28;20904;-58
2023/06/30 07:10:25;;;;;;;21.27;17.20;;;19.50;26.10;;;;;;4976083;28;20560;-57
2023/06/30 07:12:53;;;;;;;23.30;16.87;;;19.40;20.80;;;;;;4979443;28;21089;-57
2023/06/30 07:15:19;;;;;;;23.97;18.40;;;19.40;30.60;;;;;;4990399;28;20503;-58
2023/06/30 07:17:47;;;;;;;24.30;18.43;;;19.40;31.80;;;;;;4991966;28;20551;-58
2023/06/30 07:20:14;;;;;;;26.20;20.93;;;19.40;44.10;;;;;;4996025;28;20543;-57
2023/06/30 07:22:41;;;;;;;24.07;19.13;;;19.40;45.40;;;;;;4986821;28;20549;-58
2023/06/30 07:25:08;;;;;;;22.40;18.63;;;19.50;41.00;;;;;;4982925;28;21242;-58
2023/06/30 07:27:36;;;;;;;22.10;18.50;;;19.50;44.50;;;;;;4982209;28;21002;-58
2023/06/30 07:30:04;;;;;;;25.17;19.87;;;19.50;55.70;;;;;;4987681;28;20487;-57
2023/06/30 07:32:31;;;;;;;22.20;17.77;;;19.50;58.10;;;;;;4983162;28;20613;-58
2023/06/30 07:34:59;;;;;;;23.17;19.27;;;19.50;59.60;;;;;;4983639;28;20991;-59
2023/06/30 07:37:25;;;;;;;26.07;18.97;;;19.60;60.00;;;;;;4984934;28;20560;-58
2023/06/30 07:39:52;;;;;;;21.83;19.43;;;19.60;64.50;;;;;;4983614;28;20553;-57
2023/06/30 07:42:18;;;;;;;24.30;19.90;;;19.70;69.60;;;;;;4989460;28;20501;-63
2023/06/30 07:44:46;;;;;;;28.07;20.83;;;19.70;72.00;;;;;;4991960;28;20468;-62
2023/06/30 07:47:13;;;;;;;27.73;20.40;;;19.70;83.80;;;;;;4987113;28;20480;-59
2023/06/30 07:49:40;;;;;;;26.20;19.90;;;19.80;88.80;;;;;;4994995;28;20460;-58
2023/06/30 07:52:08;;;;;;;24.50;20.53;;;19.80;88.60;;;;;;4978421;28;20488;-58
2023/06/30 07:54:35;;;;;;;27.20;20.57;;;19.80;80.90;;;;;;4991176;28;20494;-58
2023/06/30 07:57:02;;;;;;;24.83;19.87;;;19.80;91.20;;;;;;4992466;28;20491;-58
2023/06/30 07:59:28;;;;;;;27.07;20.53;;;19.80;89.20;;;;;;4978304;28;20461;-57
2023/06/30 08:01:55;;;;;;;30.23;20.33;;;19.80;87.80;;;;;;4973270;28;20494;-58
2023/06/30 08:04:22;;;;;;;26.57;18.20;;;19.90;83.50;;;;;;4976694;28;20842;-57
2023/06/30 08:06:49;;;;;;;26.37;19.83;;;20.00;79.60;;;;;;4978255;28;20477;-57
2023/06/30 08:09:17;;;;;;;25.33;19.50;;;20.10;79.40;;;;;;4977590;28;20460;-58
2023/06/30 08:11:43;;;;;;;21.90;18.20;;;20.10;99.90;;;;;;4979851;28;20579;-57
2023/06/30 08:14:10;;;;;;;24.13;18.70;;;20.20;99.90;;;;;;4983777;28;20549;-59
2023/06/30 08:16:36;;;;;;;25.17;18.90;;;20.20;99.90;;;;;;4971708;28;20572;-57
2023/06/30 08:19:03;;;;;;;26.03;18.10;;;20.30;99.90;;;;;;4976930;28;20457;-58
2023/06/30 08:21:29;;;;;;;21.33;18.47;;;20.20;99.90;;;;;;4982110;28;20497;-57
2023/06/30 08:23:56;;;;;;;28.37;19.10;;;20.10;99.90;;;;;;4984730;28;20581;-58
2023/06/30 08:26:24;;;;;;;23.83;19.57;;;20.10;99.90;;;;;;4980509;28;20466;-58
2023/06/30 08:28:51;;;;;;;32.30;18.73;;;20.20;99.90;;;;;;4979852;28;20461;-57
2023/06/30 08:31:17;;;;;;;21.03;16.93;;;20.30;99.90;;;;;;4978196;28;20630;-57
2023/06/30 08:33:44;;;;;;;29.33;18.77;;;20.40;99.90;;;;;;4972185;28;20549;-58
2023/06/30 08:36:10;;;;;;;25.70;18.73;;;20.40;99.90;;;;;;4981484;28;20470;-58
2023/06/30 08:38:37;;;;;;;21.60;17.70;;;20.40;99.90;;;;;;4980904;28;20472;-57
2023/06/30 08:41:04;;;;;;;29.97;20.10;;;20.40;99.90;;;;;;4985058;28;20489;-58
2023/06/30 08:43:32;;;;;;;23.13;18.87;;;20.40;99.90;;;;;;4977513;28;20537;-57
2023/06/30 08:46:01;;;;;;;26.83;19.43;;;20.40;99.90;;;;;;4986375;28;20998;-57
2023/06/30 08:48:30;;;;;;;29.13;20.47;;;20.50;99.90;;;;;;4978581;28;20461;-57
2023/06/30 08:50:57;;;;;;;29.10;21.60;;;20.60;99.90;;;;;;4985774;28;20488;-57
2023/06/30 08:53:26;;;;;;;24.67;20.00;;;20.60;99.90;;;;;;4980515;28;21187;-57
2023/06/30 08:55:55;;;;;;;30.00;21.00;;;20.60;99.90;;;;;;4979219;28;20544;-56
2023/06/30 08:58:22;;;;;;;28.50;20.60;;;20.50;99.90;;;;;;4990300;28;20483;-58
2023/06/30 09:00:50;;;;;;;27.00;19.07;;;20.60;99.90;;;;;;4985117;28;20517;-57
2023/06/30 09:03:16;;;;;;;32.73;21.93;;;20.60;99.90;;;;;;4983961;28;20540;-57
2023/06/30 09:05:45;;;;;;;30.40;22.10;;;20.60;99.90;;;;;;4982929;28;20549;-57
2023/06/30 09:08:21;;;;;;;27.03;20.53;;;20.50;99.90;;;;;;4988212;28;20548;-56
2023/06/30 09:10:49;;;;;;;27.80;20.97;;;20.50;99.90;;;;;;4981086;28;20544;-57
2023/06/30 09:13:18;;;;;;;30.53;21.80;;;20.40;99.90;;;;;;4983262;28;20488;-57
2023/06/30 09:15:46;;;;;;;38.13;21.60;;;20.30;99.90;;;;;;4976632;28;20460;-56
2023/06/30 09:18:14;;;;;;;28.77;20.87;;;20.30;99.90;;;;;;4986751;28;20488;-57
2023/06/30 09:20:41;;;;;;;31.93;20.93;;;20.20;99.90;;;;;;4983135;28;20488;-57
2023/06/30 09:23:08;;;;;;;26.80;20.03;;;20.20;99.90;;;;;;4981160;28;20539;-57
2023/06/30 09:25:39;;;;;;;28.03;22.10;;;20.10;89.70;;;;;;4981917;28;20470;-57
2023/06/30 09:28:10;;;;;;;35.03;24.90;;;20.00;95.40;;;;;;4977989;28;20997;-58
2023/06/30 09:30:38;;;;;;;33.47;24.70;;;20.00;93.10;;;;;;4986161;28;20481;-58
2023/06/30 09:33:07;;;;;;;33.60;23.93;;;19.90;87.10;;;;;;4992264;28;20986;-56
2023/06/30 09:35:38;;;;;;;32.57;24.33;;;19.80;70.10;;;;;;4981759;28;20461;-57
2023/06/30 09:38:10;;;;;;;33.00;23.77;;;19.80;60.50;;;;;;4981912;28;20449;-57
2023/06/30 09:40:36;;;;;;;30.03;21.13;;;19.70;61.90;;;;;;4977685;28;20476;-57
2023/06/30 09:43:03;;;;;;;31.67;21.97;;;19.70;58.60;;;;;;4976888;28;20475;-58
2023/06/30 09:45:29;;;;;;;35.93;21.50;;;19.60;59.50;;;;;;4973161;28;20568;-57
2023/06/30 09:47:56;;;;;;;27.10;21.23;;;19.60;58.90;;;;;;4976825;28;20527;-58
2023/06/30 09:50:24;;;;;;;26.23;21.20;;;19.60;57.60;;;;;;4979550;28;20908;-58
2023/06/30 09:52:52;;;;;;;28.10;20.03;;;19.60;56.60;;;;;;4979386;28;21271;-58
2023/06/30 09:55:19;;;;;;;25.93;20.37;;;19.60;59.20;;;;;;4979923;28;20560;-58
2023/06/30 09:57:46;;;;;;;28.20;20.20;;;19.50;64.30;;;;;;4981081;28;20548;-57
2023/06/30 10:00:14;;;;;;;27.00;19.43;;;19.50;71.10;;;;;;4984285;28;20519;-57
2023/06/30 10:02:42;;;;;;;24.77;19.80;;;19.40;63.10;;;;;;4999686;22;20532;-50
2023/06/30 10:05:09;;;;;;;22.93;18.80;;;19.30;60.10;;;;;;4987724;28;20452;-51
2023/06/30 10:07:37;;;;;;;28.67;20.57;;;19.40;55.80;;;;;;4990157;28;20488;-51
2023/06/30 10:10:08;;;;;;;30.80;20.00;;;19.30;52.60;;;;;;4980681;28;20884;-52
2023/06/30 10:12:36;;;;;;;28.70;20.53;;;19.30;49.80;;;;;;4977037;28;20574;-51
2023/06/30 10:15:06;;;;;;;24.93;20.13;;;19.30;41.00;;;;;;4967996;28;20608;-51
2023/06/30 10:17:33;;;;;;;26.50;21.07;;;19.30;37.60;;;;;;4975201;28;20915;-51
2023/06/30 10:20:01;;;;;;;27.70;20.20;;;19.20;31.70;;;;;;4969427;28;20985;-51
2023/06/30 10:22:28;;;;;;;30.70;22.40;;;19.10;27.90;;;;;;4978114;28;20547;-51
2023/06/30 10:24:56;;;;;;;36.17;23.50;;;19.10;88.90;;;;;;4968804;28;20466;-51
2023/06/30 10:27:25;;;;;;;27.30;21.87;;;19.10;99.90;;;;;;4975187;28;20504;-51
2023/06/30 10:29:51;;;;;;;30.30;21.40;;;19.10;99.90;;;;;;4972488;28;20967;-51
2023/06/30 10:32:20;;;;;;;31.67;24.10;;;19.20;99.90;;;;;;4977083;28;20492;-51
2023/06/30 10:34:47;;;;;;;29.90;22.70;;;19.20;99.90;;;;;;4970132;28;20462;-51
2023/06/30 10:37:14;;;;;;;31.10;23.43;;;19.20;99.90;;;;;;4984638;28;20920;-52
2023/06/30 10:39:41;;;;;;;27.60;22.00;;;19.30;99.90;;;;;;4967003;28;20497;-51
2023/06/30 10:42:11;;;;;;;33.20;24.40;;;19.20;99.90;;;;;;4970978;28;21026;-52
2023/06/30 10:44:40;;;;;;;26.70;21.57;;;19.20;99.90;;;;;;4971187;28;20561;-52
2023/06/30 10:47:06;;;;;;;29.77;23.07;;;19.30;99.90;;;;;;4974053;28;20552;-51
2023/06/30 10:49:34;;;;;;;30.10;22.70;;;19.40;99.90;;;;;;4965422;28;20550;-52
2023/06/30 10:52:02;;;;;;;30.50;23.20;;;19.40;99.90;;;;;;4969257;28;20549;-51
2023/06/30 10:54:31;;;;;;;32.00;24.13;;;19.60;99.90;;;;;;4966879;28;21043;-51
2023/06/30 10:57:10;;;;;;;30.23;23.50;;;19.60;99.90;;;;;;4966413;28;20468;-51
2023/06/30 10:59:39;;;;;;;32.60;24.07;;;19.50;99.90;;;;;;4961420;28;20469;-52
2023/06/30 11:02:23;;;;;;;29.13;23.23;;;19.60;99.90;;;;;;4969270;28;20457;-51
2023/06/30 11:04:52;;;;;;;28.70;23.00;;;19.50;84.50;;;;;;4971651;28;20948;-51
2023/06/30 11:07:19;;;;;;;30.53;24.70;;;19.60;99.90;;;;;;4969254;28;20524;-51
2023/06/30 11:09:59;;;;;;;30.90;24.20;;;19.60;99.90;;;;;;4966947;28;20541;-52
2023/06/30 11:12:27;;;;;;;31.10;24.23;;;19.60;99.90;;;;;;4969054;28;20496;-51
2023/06/30 11:14:57;;;;;;;31.77;24.67;;;19.60;99.90;;;;;;4967340;28;20473;-51
2023/06/30 11:17:24;;;;;;;30.90;24.20;;;19.60;22.00;;;;;;4962908;28;20467;-51
2023/06/30 11:20:08;;;;;;;31.23;23.80;;;19.50;22.70;;;;;;4969906;28;20580;-51
2023/06/30 11:22:35;;;;;;;34.60;22.97;;;19.50;87.00;;;;;;4972838;28;20573;-51
2023/06/30 11:25:04;;;;;;;34.77;25.03;;;19.60;99.90;;;;;;4964396;28;20556;-51
2023/06/30 11:27:31;;;;;;;30.23;19.13;;;19.40;99.90;;;;;;4963363;28;20833;-51
2023/06/30 11:30:00;;;;;;;24.60;16.80;;;19.40;99.90;;;;;;4962669;28;20554;-50
2023/06/30 11:32:27;;;;;;;15.00;9.60;;;19.20;24.70;;;;;;4968434;28;20864;-51
2023/06/30 11:34:57;;;;;;;10.90;9.63;;;18.80;28.60;;;;;;4971449;28;20553;-51
2023/06/30 11:37:23;;;;;;;15.80;10.00;;;18.70;85.20;;;;;;4962700;28;20561;-51
2023/06/30 11:39:53;;;;;;;12.90;9.03;;;18.60;99.90;;;;;;4964889;28;20553;-50
2023/06/30 11:42:20;;;;;;;21.50;10.10;;;18.40;99.90;;;;;;4965217;28;20481;-51
2023/06/30 11:44:48;;;;;;;12.30;8.83;;;18.40;99.90;;;;;;4964724;28;20517;-51
2023/06/30 11:47:16;;;;;;;11.10;8.40;;;18.20;99.90;;;;;;4969811;28;20465;-51
2023/06/30 11:49:43;;;;;;;10.47;7.07;;;18.10;99.90;;;;;;4970417;28;20918;-52
2023/06/30 11:52:12;;;;;;;11.60;7.40;;;18.00;99.90;;;;;;4964724;28;20490;-51
2023/06/30 11:54:38;;;;;;;10.60;7.90;;;17.90;99.90;;;;;;4962956;28;20852;-52
2023/06/30 11:57:05;;;;;;;11.20;7.93;;;17.90;99.90;;;;;;4967269;28;20552;-51
2023/06/30 11:59:32;;;;;;;24.50;8.17;;;17.80;99.90;;;;;;4963584;28;20500;-51
2023/06/30 12:04:47;;;;;;;9.70;7.87;;;17.90;99.90;;;;;;5076272;27;21109;-50
2023/06/30 12:07:15;;;;;;;8.40;7.10;;;17.90;99.90;;;;;;5080809;28;20575;-52
2023/06/30 12:09:42;;;;;;;10.07;8.80;;;18.00;99.90;;;;;;5076181;28;20547;-50
2023/06/30 12:12:09;;;;;;;11.10;8.50;;;17.90;99.90;;;;;;5081722;28;20495;-51
2023/06/30 12:14:41;;;;;;;11.37;8.87;;;18.00;99.90;;;;;;5072340;28;21115;-51
2023/06/30 12:17:08;;;;;;;11.43;9.60;;;18.00;99.90;;;;;;5074643;28;20553;-51
2023/06/30 12:19:35;;;;;;;16.03;10.23;;;18.10;99.90;;;;;;5072390;28;20479;-51
2023/06/30 12:22:03;;;;;;;14.50;9.20;;;18.20;99.90;;;;;;5080334;28;20484;-51
2023/06/30 12:24:31;;;;;;;12.90;9.83;;;18.30;99.90;;;;;;5070624;28;20480;-51
2023/06/30 12:27:00;;;;;;;13.27;9.23;;;18.30;99.90;;;;;;5072356;28;20919;-51
2023/06/30 12:29:30;;;;;;;10.60;9.10;;;18.30;99.90;;;;;;5069638;28;20982;-51
2023/06/30 12:31:56;;;;;;;11.30;9.33;;;18.40;99.90;;;;;;5077331;28;20491;-50